sensor_id;sensor_type;location;lat;lon;timestamp;P1;durP1;ratioP1;P2;durP2;ratioP2
21769;SDS011;11046;49.558;8.674;2023-02-21T00:02:55;22.43;;;5.23;;
21769;SDS011;11046;49.558;8.674;2023-02-21T00:06:14;11.83;;;4.90;;
21769;SDS011;11046;49.558;8.674;2023-02-21T00:09:33;14.40;;;5.50;;
21769;SDS011;11046;49.558;8.674;2023-02-21T00:12:52;8.37;;;4.63;;
21769;SDS011;11046;49.558;8.674;2023-02-21T00:16:15;11.13;;;4.43;;
21769;SDS011;11046;49.558;8.674;2023-02-21T00:19:35;8.30;;;4.63;;
21769;SDS011;11046;49.558;8.674;2023-02-21T00:22:54;9.43;;;4.30;;
21769;SDS011;11046;49.558;8.674;2023-02-21T00:26:16;13.10;;;4.93;;
21769;SDS011;11046;49.558;8.674;2023-02-21T00:29:36;14.23;;;5.50;;
21769;SDS011;11046;49.558;8.674;2023-02-21T00:32:55;17.47;;;7.17;;
21769;SDS011;11046;49.558;8.674;2023-02-21T00:36:15;20.80;;;8.57;;
21769;SDS011;11046;49.558;8.674;2023-02-21T00:39:35;21.80;;;9.50;;
21769;SDS011;11046;49.558;8.674;2023-02-21T00:42:54;26.37;;;10.90;;
21769;SDS011;11046;49.558;8.674;2023-02-21T00:46:13;19.83;;;9.00;;
21769;SDS011;11046;49.558;8.674;2023-02-21T00:49:32;24.67;;;10.43;;
21769;SDS011;11046;49.558;8.674;2023-02-21T00:52:52;26.23;;;11.20;;
21769;SDS011;11046;49.558;8.674;2023-02-21T00:56:11;22.73;;;10.90;;
21769;SDS011;11046;49.558;8.674;2023-02-21T00:59:30;26.07;;;12.70;;
21769;SDS011;11046;49.558;8.674;2023-02-21T01:02:49;26.90;;;11.93;;
21769;SDS011;11046;49.558;8.674;2023-02-21T01:06:09;26.43;;;11.97;;
21769;SDS011;11046;49.558;8.674;2023-02-21T01:09:29;24.03;;;11.20;;
21769;SDS011;11046;49.558;8.674;2023-02-21T01:12:49;23.70;;;10.47;;
21769;SDS011;11046;49.558;8.674;2023-02-21T01:16:08;21.23;;;9.43;;
21769;SDS011;11046;49.558;8.674;2023-02-21T01:19:27;17.67;;;9.50;;
21769;SDS011;11046;49.558;8.674;2023-02-21T01:22:46;24.20;;;8.80;;
21769;SDS011;11046;49.558;8.674;2023-02-21T01:26:07;21.97;;;9.13;;
21769;SDS011;11046;49.558;8.674;2023-02-21T01:29:31;19.70;;;9.50;;
21769;SDS011;11046;49.558;8.674;2023-02-21T01:32:50;19.90;;;9.63;;
21769;SDS011;11046;49.558;8.674;2023-02-21T01:36:09;20.30;;;8.50;;
21769;SDS011;11046;49.558;8.674;2023-02-21T01:39:29;20.10;;;8.43;;
21769;SDS011;11046;49.558;8.674;2023-02-21T01:42:48;16.47;;;9.00;;
21769;SDS011;11046;49.558;8.674;2023-02-21T01:46:14;19.63;;;8.00;;
21769;SDS011;11046;49.558;8.674;2023-02-21T01:49:37;22.50;;;9.83;;
21769;SDS011;11046;49.558;8.674;2023-02-21T01:52:58;15.90;;;8.30;;
21769;SDS011;11046;49.558;8.674;2023-02-21T01:56:20;20.10;;;8.40;;
21769;SDS011;11046;49.558;8.674;2023-02-21T01:59:39;20.13;;;8.67;;
21769;SDS011;11046;49.558;8.674;2023-02-21T02:03:00;15.57;;;7.97;;
21769;SDS011;11046;49.558;8.674;2023-02-21T02:06:22;18.00;;;8.00;;
21769;SDS011;11046;49.558;8.674;2023-02-21T02:09:41;21.60;;;8.40;;
21769;SDS011;11046;49.558;8.674;2023-02-21T02:13:09;18.53;;;8.37;;
21769;SDS011;11046;49.558;8.674;2023-02-21T02:16:30;20.73;;;8.33;;
21769;SDS011;11046;49.558;8.674;2023-02-21T02:19:58;17.33;;;8.13;;
21769;SDS011;11046;49.558;8.674;2023-02-21T02:36:43;19.37;;;8.30;;
21769;SDS011;11046;49.558;8.674;2023-02-21T02:40:13;20.40;;;8.93;;
21769;SDS011;11046;49.558;8.674;2023-02-21T02:43:32;17.37;;;8.20;;
21769;SDS011;11046;49.558;8.674;2023-02-21T02:46:40;19.00;;;8.57;;
21769;SDS011;11046;49.558;8.674;2023-02-21T02:49:44;19.70;;;7.83;;
21769;SDS011;11046;49.558;8.674;2023-02-21T02:52:49;20.60;;;8.83;;
21769;SDS011;11046;49.558;8.674;2023-02-21T02:55:52;18.40;;;7.90;;
21769;SDS011;11046;49.558;8.674;2023-02-21T02:59:09;21.70;;;8.37;;
21769;SDS011;11046;49.558;8.674;2023-02-21T03:02:21;19.27;;;8.50;;
21769;SDS011;11046;49.558;8.674;2023-02-21T03:09:08;15.30;;;7.20;;
21769;SDS011;11046;49.558;8.674;2023-02-21T03:15:51;17.43;;;8.60;;
21769;SDS011;11046;49.558;8.674;2023-02-21T03:19:07;16.83;;;8.87;;
21769;SDS011;11046;49.558;8.674;2023-02-21T03:22:15;16.43;;;8.30;;
21769;SDS011;11046;49.558;8.674;2023-02-21T03:25:21;20.80;;;8.70;;
21769;SDS011;11046;49.558;8.674;2023-02-21T03:28:23;20.03;;;8.43;;
21769;SDS011;11046;49.558;8.674;2023-02-21T03:31:25;20.57;;;8.47;;
21769;SDS011;11046;49.558;8.674;2023-02-21T03:34:31;17.93;;;8.20;;
21769;SDS011;11046;49.558;8.674;2023-02-21T03:40:37;17.87;;;8.73;;
21769;SDS011;11046;49.558;8.674;2023-02-21T03:43:38;21.43;;;8.60;;
21769;SDS011;11046;49.558;8.674;2023-02-21T03:46:39;17.53;;;8.80;;
21769;SDS011;11046;49.558;8.674;2023-02-21T03:49:40;21.43;;;8.43;;
21769;SDS011;11046;49.558;8.674;2023-02-21T03:52:41;19.57;;;8.23;;
21769;SDS011;11046;49.558;8.674;2023-02-21T03:55:41;22.43;;;8.70;;
21769;SDS011;11046;49.558;8.674;2023-02-21T03:58:48;22.10;;;8.00;;
21769;SDS011;11046;49.558;8.674;2023-02-21T04:01:49;18.83;;;8.80;;
21769;SDS011;11046;49.558;8.674;2023-02-21T04:04:51;16.27;;;8.00;;
21769;SDS011;11046;49.558;8.674;2023-02-21T04:07:55;19.27;;;7.97;;
21769;SDS011;11046;49.558;8.674;2023-02-21T04:10:55;20.07;;;8.40;;
21769;SDS011;11046;49.558;8.674;2023-02-21T04:14:00;17.83;;;8.67;;
21769;SDS011;11046;49.558;8.674;2023-02-21T04:17:00;19.60;;;8.57;;
21769;SDS011;11046;49.558;8.674;2023-02-21T04:20:02;21.47;;;8.73;;
21769;SDS011;11046;49.558;8.674;2023-02-21T04:23:04;17.33;;;8.13;;
21769;SDS011;11046;49.558;8.674;2023-02-21T04:26:07;22.00;;;8.77;;
21769;SDS011;11046;49.558;8.674;2023-02-21T04:29:19;15.17;;;7.83;;
21769;SDS011;11046;49.558;8.674;2023-02-21T04:32:19;16.60;;;8.17;;
21769;SDS011;11046;49.558;8.674;2023-02-21T04:35:21;25.77;;;8.77;;
21769;SDS011;11046;49.558;8.674;2023-02-21T04:38:21;17.37;;;7.77;;
21769;SDS011;11046;49.558;8.674;2023-02-21T04:41:22;17.67;;;7.77;;
21769;SDS011;11046;49.558;8.674;2023-02-21T04:44:23;20.27;;;8.07;;
21769;SDS011;11046;49.558;8.674;2023-02-21T04:47:23;17.47;;;8.20;;
21769;SDS011;11046;49.558;8.674;2023-02-21T04:50:24;18.73;;;8.73;;
21769;SDS011;11046;49.558;8.674;2023-02-21T04:53:25;20.97;;;8.80;;
21769;SDS011;11046;49.558;8.674;2023-02-21T04:56:25;15.57;;;8.33;;
21769;SDS011;11046;49.558;8.674;2023-02-21T04:59:29;21.70;;;8.83;;
21769;SDS011;11046;49.558;8.674;2023-02-21T05:02:29;18.60;;;8.97;;
21769;SDS011;11046;49.558;8.674;2023-02-21T05:05:30;19.43;;;8.57;;
21769;SDS011;11046;49.558;8.674;2023-02-21T05:08:31;24.80;;;9.40;;
21769;SDS011;11046;49.558;8.674;2023-02-21T05:11:32;22.50;;;9.83;;
21769;SDS011;11046;49.558;8.674;2023-02-21T05:14:36;22.73;;;8.43;;
21769;SDS011;11046;49.558;8.674;2023-02-21T05:17:38;20.07;;;9.50;;
21769;SDS011;11046;49.558;8.674;2023-02-21T05:20:38;22.27;;;9.03;;
21769;SDS011;11046;49.558;8.674;2023-02-21T05:23:39;24.37;;;9.10;;
21769;SDS011;11046;49.558;8.674;2023-02-21T05:26:41;22.17;;;9.43;;
21769;SDS011;11046;49.558;8.674;2023-02-21T05:29:51;23.93;;;9.27;;
21769;SDS011;11046;49.558;8.674;2023-02-21T05:32:52;17.53;;;8.90;;
21769;SDS011;11046;49.558;8.674;2023-02-21T05:35:53;22.50;;;9.10;;
21769;SDS011;11046;49.558;8.674;2023-02-21T05:38:54;21.13;;;9.23;;
21769;SDS011;11046;49.558;8.674;2023-02-21T05:41:55;24.97;;;9.40;;
21769;SDS011;11046;49.558;8.674;2023-02-21T05:44:55;24.27;;;10.90;;
21769;SDS011;11046;49.558;8.674;2023-02-21T05:47:56;20.23;;;9.57;;
21769;SDS011;11046;49.558;8.674;2023-02-21T05:50:59;21.97;;;9.80;;
21769;SDS011;11046;49.558;8.674;2023-02-21T05:54:00;23.13;;;9.53;;
21769;SDS011;11046;49.558;8.674;2023-02-21T05:57:00;21.57;;;9.50;;
21769;SDS011;11046;49.558;8.674;2023-02-21T06:00:01;22.33;;;8.87;;
21769;SDS011;11046;49.558;8.674;2023-02-21T06:03:12;18.40;;;8.30;;
21769;SDS011;11046;49.558;8.674;2023-02-21T06:06:13;20.83;;;9.07;;
21769;SDS011;11046;49.558;8.674;2023-02-21T06:09:15;20.23;;;8.57;;
21769;SDS011;11046;49.558;8.674;2023-02-21T06:12:17;25.20;;;9.10;;
21769;SDS011;11046;49.558;8.674;2023-02-21T06:15:18;25.13;;;9.83;;
21769;SDS011;11046;49.558;8.674;2023-02-21T06:18:21;19.27;;;8.83;;
21769;SDS011;11046;49.558;8.674;2023-02-21T06:21:22;20.67;;;9.27;;
21769;SDS011;11046;49.558;8.674;2023-02-21T06:24:25;21.67;;;10.07;;
21769;SDS011;11046;49.558;8.674;2023-02-21T06:27:30;19.67;;;8.87;;
21769;SDS011;11046;49.558;8.674;2023-02-21T06:30:31;25.73;;;9.43;;
21769;SDS011;11046;49.558;8.674;2023-02-21T06:33:32;18.40;;;8.43;;
21769;SDS011;11046;49.558;8.674;2023-02-21T06:36:36;18.77;;;9.43;;
21769;SDS011;11046;49.558;8.674;2023-02-21T06:39:44;17.50;;;8.87;;
21769;SDS011;11046;49.558;8.674;2023-02-21T06:42:47;25.23;;;10.00;;
21769;SDS011;11046;49.558;8.674;2023-02-21T06:45:48;23.37;;;9.60;;
21769;SDS011;11046;49.558;8.674;2023-02-21T06:48:49;25.07;;;10.23;;
21769;SDS011;11046;49.558;8.674;2023-02-21T06:51:50;22.40;;;9.83;;
21769;SDS011;11046;49.558;8.674;2023-02-21T06:54:51;26.23;;;11.33;;
21769;SDS011;11046;49.558;8.674;2023-02-21T06:57:54;22.40;;;10.90;;
21769;SDS011;11046;49.558;8.674;2023-02-21T07:00:58;22.87;;;11.30;;
21769;SDS011;11046;49.558;8.674;2023-02-21T07:04:01;27.57;;;10.90;;
21769;SDS011;11046;49.558;8.674;2023-02-21T07:07:04;30.30;;;12.57;;
21769;SDS011;11046;49.558;8.674;2023-02-21T07:10:05;24.93;;;11.07;;
21769;SDS011;11046;49.558;8.674;2023-02-21T07:13:05;23.50;;;11.17;;
21769;SDS011;11046;49.558;8.674;2023-02-21T07:16:06;24.90;;;10.97;;
21769;SDS011;11046;49.558;8.674;2023-02-21T07:19:07;23.07;;;10.60;;
21769;SDS011;11046;49.558;8.674;2023-02-21T07:22:08;21.73;;;10.77;;
21769;SDS011;11046;49.558;8.674;2023-02-21T07:25:14;23.90;;;12.00;;
21769;SDS011;11046;49.558;8.674;2023-02-21T07:28:16;27.17;;;11.60;;
21769;SDS011;11046;49.558;8.674;2023-02-21T07:31:23;29.17;;;11.37;;
21769;SDS011;11046;49.558;8.674;2023-02-21T07:34:23;27.63;;;11.97;;
21769;SDS011;11046;49.558;8.674;2023-02-21T07:37:24;31.47;;;12.73;;
21769;SDS011;11046;49.558;8.674;2023-02-21T07:40:26;28.53;;;13.70;;
21769;SDS011;11046;49.558;8.674;2023-02-21T07:43:29;32.43;;;13.33;;
21769;SDS011;11046;49.558;8.674;2023-02-21T07:46:30;24.53;;;11.63;;
21769;SDS011;11046;49.558;8.674;2023-02-21T07:49:31;24.87;;;12.10;;
21769;SDS011;11046;49.558;8.674;2023-02-21T07:52:37;37.67;;;15.73;;
21769;SDS011;11046;49.558;8.674;2023-02-21T07:55:38;27.30;;;12.27;;
21769;SDS011;11046;49.558;8.674;2023-02-21T07:58:38;30.23;;;12.73;;
21769;SDS011;11046;49.558;8.674;2023-02-21T08:01:39;30.07;;;12.03;;
21769;SDS011;11046;49.558;8.674;2023-02-21T08:04:40;27.77;;;10.63;;
21769;SDS011;11046;49.558;8.674;2023-02-21T08:07:41;22.20;;;9.27;;
21769;SDS011;11046;49.558;8.674;2023-02-21T16:55:21;25.27;;;10.13;;
21769;SDS011;11046;49.558;8.674;2023-02-21T16:58:24;17.88;;;8.82;;
21769;SDS011;11046;49.558;8.674;2023-02-21T17:01:27;16.80;;;9.27;;
21769;SDS011;11046;49.558;8.674;2023-02-21T17:04:31;18.38;;;8.15;;
21769;SDS011;11046;49.558;8.674;2023-02-21T17:07:33;18.95;;;8.05;;
21769;SDS011;11046;49.558;8.674;2023-02-21T17:10:34;16.90;;;6.90;;
21769;SDS011;11046;49.558;8.674;2023-02-21T17:13:35;19.40;;;8.00;;
21769;SDS011;11046;49.558;8.674;2023-02-21T17:16:37;15.43;;;7.13;;
21769;SDS011;11046;49.558;8.674;2023-02-21T17:19:39;22.97;;;6.60;;
21769;SDS011;11046;49.558;8.674;2023-02-21T17:22:40;11.33;;;5.83;;
21769;SDS011;11046;49.558;8.674;2023-02-21T17:25:41;13.07;;;6.47;;
21769;SDS011;11046;49.558;8.674;2023-02-21T17:28:43;19.13;;;6.43;;
21769;SDS011;11046;49.558;8.674;2023-02-21T17:31:45;17.37;;;6.03;;
21769;SDS011;11046;49.558;8.674;2023-02-21T17:34:46;17.50;;;5.77;;
21769;SDS011;11046;49.558;8.674;2023-02-21T17:37:47;14.13;;;5.63;;
21769;SDS011;11046;49.558;8.674;2023-02-21T17:40:49;16.17;;;5.70;;
21769;SDS011;11046;49.558;8.674;2023-02-21T17:43:49;15.07;;;6.13;;
21769;SDS011;11046;49.558;8.674;2023-02-21T17:46:55;12.20;;;5.77;;
21769;SDS011;11046;49.558;8.674;2023-02-21T17:49:56;12.83;;;5.60;;
21769;SDS011;11046;49.558;8.674;2023-02-21T17:52:59;12.87;;;5.50;;
21769;SDS011;11046;49.558;8.674;2023-02-21T17:56:00;12.67;;;5.90;;
21769;SDS011;11046;49.558;8.674;2023-02-21T17:59:02;11.63;;;5.77;;
21769;SDS011;11046;49.558;8.674;2023-02-21T18:02:04;14.60;;;6.13;;
21769;SDS011;11046;49.558;8.674;2023-02-21T18:05:07;12.70;;;6.30;;
21769;SDS011;11046;49.558;8.674;2023-02-21T18:08:08;14.40;;;6.67;;
21769;SDS011;11046;49.558;8.674;2023-02-21T18:11:10;16.83;;;8.83;;
21769;SDS011;11046;49.558;8.674;2023-02-21T18:14:12;24.70;;;10.40;;
21769;SDS011;11046;49.558;8.674;2023-02-21T18:17:13;23.00;;;9.70;;
21769;SDS011;11046;49.558;8.674;2023-02-21T18:20:15;23.27;;;10.33;;
21769;SDS011;11046;49.558;8.674;2023-02-21T18:23:16;17.90;;;9.10;;
21769;SDS011;11046;49.558;8.674;2023-02-21T18:26:18;17.73;;;8.13;;
21769;SDS011;11046;49.558;8.674;2023-02-21T18:29:18;18.53;;;8.20;;
21769;SDS011;11046;49.558;8.674;2023-02-21T18:32:20;19.67;;;7.83;;
21769;SDS011;11046;49.558;8.674;2023-02-21T18:35:22;14.07;;;7.17;;
21769;SDS011;11046;49.558;8.674;2023-02-21T18:38:23;15.53;;;7.40;;
21769;SDS011;11046;49.558;8.674;2023-02-21T18:41:25;14.07;;;7.43;;
21769;SDS011;11046;49.558;8.674;2023-02-21T18:44:29;13.07;;;7.70;;
21769;SDS011;11046;49.558;8.674;2023-02-21T18:47:30;18.87;;;8.10;;
21769;SDS011;11046;49.558;8.674;2023-02-21T18:50:33;13.73;;;7.83;;
21769;SDS011;11046;49.558;8.674;2023-02-21T18:53:35;14.67;;;6.50;;
21769;SDS011;11046;49.558;8.674;2023-02-21T18:56:37;13.80;;;7.40;;
21769;SDS011;11046;49.558;8.674;2023-02-21T18:59:38;13.03;;;5.93;;
21769;SDS011;11046;49.558;8.674;2023-02-21T19:02:38;13.13;;;6.70;;
21769;SDS011;11046;49.558;8.674;2023-02-21T19:05:39;10.93;;;7.03;;
21769;SDS011;11046;49.558;8.674;2023-02-21T19:08:43;10.90;;;5.40;;
21769;SDS011;11046;49.558;8.674;2023-02-21T19:11:49;13.50;;;6.93;;
21769;SDS011;11046;49.558;8.674;2023-02-21T19:14:51;13.80;;;6.20;;
21769;SDS011;11046;49.558;8.674;2023-02-21T19:17:52;11.50;;;6.00;;
21769;SDS011;11046;49.558;8.674;2023-02-21T19:20:54;17.63;;;8.47;;
21769;SDS011;11046;49.558;8.674;2023-02-21T19:23:54;17.37;;;9.40;;
21769;SDS011;11046;49.558;8.674;2023-02-21T19:26:55;16.07;;;9.10;;
21769;SDS011;11046;49.558;8.674;2023-02-21T19:29:56;21.97;;;8.60;;
21769;SDS011;11046;49.558;8.674;2023-02-21T19:32:57;14.93;;;8.70;;
21769;SDS011;11046;49.558;8.674;2023-02-21T19:36:01;15.30;;;8.13;;
21769;SDS011;11046;49.558;8.674;2023-02-21T19:39:07;13.77;;;8.10;;
21769;SDS011;11046;49.558;8.674;2023-02-21T19:42:09;17.93;;;8.37;;
21769;SDS011;11046;49.558;8.674;2023-02-21T19:45:10;17.90;;;9.07;;
21769;SDS011;11046;49.558;8.674;2023-02-21T19:48:11;19.03;;;9.03;;
21769;SDS011;11046;49.558;8.674;2023-02-21T19:51:13;15.53;;;9.77;;
21769;SDS011;11046;49.558;8.674;2023-02-21T19:54:16;17.97;;;10.00;;
21769;SDS011;11046;49.558;8.674;2023-02-21T19:57:19;27.00;;;14.10;;
21769;SDS011;11046;49.558;8.674;2023-02-21T20:00:20;26.40;;;15.67;;
21769;SDS011;11046;49.558;8.674;2023-02-21T20:03:23;18.37;;;10.17;;
21769;SDS011;11046;49.558;8.674;2023-02-21T20:06:25;17.40;;;10.30;;
21769;SDS011;11046;49.558;8.674;2023-02-21T20:09:27;18.03;;;10.00;;
21769;SDS011;11046;49.558;8.674;2023-02-21T20:12:28;21.60;;;11.40;;
21769;SDS011;11046;49.558;8.674;2023-02-21T20:15:29;18.13;;;12.53;;
21769;SDS011;11046;49.558;8.674;2023-02-21T20:18:30;21.67;;;11.20;;
21769;SDS011;11046;49.558;8.674;2023-02-21T20:21:31;20.73;;;10.70;;
21769;SDS011;11046;49.558;8.674;2023-02-21T20:24:33;21.50;;;12.47;;
21769;SDS011;11046;49.558;8.674;2023-02-21T20:27:34;27.37;;;17.47;;
21769;SDS011;11046;49.558;8.674;2023-02-21T20:30:35;26.00;;;13.00;;
21769;SDS011;11046;49.558;8.674;2023-02-21T20:33:36;24.40;;;13.63;;
21769;SDS011;11046;49.558;8.674;2023-02-21T20:36:39;24.37;;;14.13;;
21769;SDS011;11046;49.558;8.674;2023-02-21T20:39:46;26.40;;;13.90;;
21769;SDS011;11046;49.558;8.674;2023-02-21T20:42:49;25.63;;;15.47;;
21769;SDS011;11046;49.558;8.674;2023-02-21T20:45:51;29.57;;;15.40;;
21769;SDS011;11046;49.558;8.674;2023-02-21T20:48:52;27.27;;;15.53;;
21769;SDS011;11046;49.558;8.674;2023-02-21T20:51:54;28.50;;;14.67;;
21769;SDS011;11046;49.558;8.674;2023-02-21T20:54:55;27.27;;;15.40;;
21769;SDS011;11046;49.558;8.674;2023-02-21T20:57:56;28.53;;;14.53;;
21769;SDS011;11046;49.558;8.674;2023-02-21T21:00:59;29.43;;;15.87;;
21769;SDS011;11046;49.558;8.674;2023-02-21T21:04:01;25.27;;;14.43;;
21769;SDS011;11046;49.558;8.674;2023-02-21T21:07:06;27.77;;;15.77;;
21769;SDS011;11046;49.558;8.674;2023-02-21T21:10:13;31.87;;;15.63;;
21769;SDS011;11046;49.558;8.674;2023-02-21T21:13:16;28.73;;;15.67;;
21769;SDS011;11046;49.558;8.674;2023-02-21T21:16:17;30.90;;;15.40;;
21769;SDS011;11046;49.558;8.674;2023-02-21T21:19:19;32.03;;;16.53;;
21769;SDS011;11046;49.558;8.674;2023-02-21T21:22:24;27.83;;;16.07;;
21769;SDS011;11046;49.558;8.674;2023-02-21T21:25:27;31.10;;;16.03;;
21769;SDS011;11046;49.558;8.674;2023-02-21T21:28:34;30.80;;;17.03;;
21769;SDS011;11046;49.558;8.674;2023-02-21T21:31:36;29.03;;;15.40;;
21769;SDS011;11046;49.558;8.674;2023-02-21T21:34:38;30.23;;;15.27;;
21769;SDS011;11046;49.558;8.674;2023-02-21T21:37:45;26.30;;;15.83;;
21769;SDS011;11046;49.558;8.674;2023-02-21T21:40:47;34.27;;;17.13;;
21769;SDS011;11046;49.558;8.674;2023-02-21T21:43:48;34.23;;;17.73;;
21769;SDS011;11046;49.558;8.674;2023-02-21T21:46:50;36.43;;;17.40;;
21769;SDS011;11046;49.558;8.674;2023-02-21T21:49:52;34.80;;;18.30;;
21769;SDS011;11046;49.558;8.674;2023-02-21T21:52:55;36.30;;;17.80;;
21769;SDS011;11046;49.558;8.674;2023-02-21T21:55:56;33.83;;;17.97;;
21769;SDS011;11046;49.558;8.674;2023-02-21T21:59:08;34.13;;;16.93;;
21769;SDS011;11046;49.558;8.674;2023-02-21T22:02:10;32.63;;;16.97;;
21769;SDS011;11046;49.558;8.674;2023-02-21T22:05:12;33.20;;;16.73;;
21769;SDS011;11046;49.558;8.674;2023-02-21T22:08:15;34.03;;;17.53;;
21769;SDS011;11046;49.558;8.674;2023-02-21T22:11:19;32.17;;;17.30;;
21769;SDS011;11046;49.558;8.674;2023-02-21T22:14:20;35.30;;;18.80;;
21769;SDS011;11046;49.558;8.674;2023-02-21T22:17:22;29.93;;;16.30;;
21769;SDS011;11046;49.558;8.674;2023-02-21T22:20:23;31.00;;;16.73;;
21769;SDS011;11046;49.558;8.674;2023-02-21T22:23:30;28.57;;;15.17;;
21769;SDS011;11046;49.558;8.674;2023-02-21T22:26:30;35.83;;;16.70;;
21769;SDS011;11046;49.558;8.674;2023-02-21T22:29:31;34.03;;;17.23;;
21769;SDS011;11046;49.558;8.674;2023-02-21T22:32:32;30.07;;;15.90;;
21769;SDS011;11046;49.558;8.674;2023-02-21T22:35:32;30.17;;;15.67;;
21769;SDS011;11046;49.558;8.674;2023-02-21T22:38:33;37.90;;;16.30;;
21769;SDS011;11046;49.558;8.674;2023-02-21T22:41:33;32.60;;;16.90;;
21769;SDS011;11046;49.558;8.674;2023-02-21T22:44:34;29.93;;;14.60;;
21769;SDS011;11046;49.558;8.674;2023-02-21T22:47:36;31.30;;;14.20;;
21769;SDS011;11046;49.558;8.674;2023-02-21T22:50:37;25.83;;;13.53;;
21769;SDS011;11046;49.558;8.674;2023-02-21T22:53:38;27.20;;;13.93;;
21769;SDS011;11046;49.558;8.674;2023-02-21T22:56:40;27.93;;;14.30;;
21769;SDS011;11046;49.558;8.674;2023-02-21T22:59:49;26.57;;;14.47;;
21769;SDS011;11046;49.558;8.674;2023-02-21T23:02:50;30.63;;;15.27;;
21769;SDS011;11046;49.558;8.674;2023-02-21T23:05:51;28.17;;;14.87;;
21769;SDS011;11046;49.558;8.674;2023-02-21T23:08:53;32.17;;;15.37;;
21769;SDS011;11046;49.558;8.674;2023-02-21T23:11:56;29.37;;;14.90;;
21769;SDS011;11046;49.558;8.674;2023-02-21T23:14:58;30.77;;;15.80;;
21769;SDS011;11046;49.558;8.674;2023-02-21T23:17:58;26.70;;;14.07;;
21769;SDS011;11046;49.558;8.674;2023-02-21T23:20:59;28.70;;;14.73;;
21769;SDS011;11046;49.558;8.674;2023-02-21T23:23:59;27.10;;;14.87;;
21769;SDS011;11046;49.558;8.674;2023-02-21T23:27:00;26.07;;;13.97;;
21769;SDS011;11046;49.558;8.674;2023-02-21T23:30:01;29.93;;;14.57;;
21769;SDS011;11046;49.558;8.674;2023-02-21T23:33:02;28.63;;;14.80;;
21769;SDS011;11046;49.558;8.674;2023-02-21T23:36:05;27.83;;;14.33;;
21769;SDS011;11046;49.558;8.674;2023-02-21T23:39:06;22.57;;;13.07;;
21769;SDS011;11046;49.558;8.674;2023-02-21T23:42:08;29.97;;;14.40;;
21769;SDS011;11046;49.558;8.674;2023-02-21T23:45:10;24.67;;;12.97;;
21769;SDS011;11046;49.558;8.674;2023-02-21T23:48:12;28.60;;;13.97;;
21769;SDS011;11046;49.558;8.674;2023-02-21T23:51:14;28.07;;;14.07;;
21769;SDS011;11046;49.558;8.674;2023-02-21T23:54:16;28.20;;;13.83;;
21769;SDS011;11046;49.558;8.674;2023-02-21T23:57:17;25.57;;;13.50;;
